sensor_id;sensor_type;location;lat;lon;timestamp;temperature;humidity
15930;DHT22;8064;51.142;4.780;2022-12-07T00:01:07;7.00;99.90
15930;DHT22;8064;51.142;4.780;2022-12-07T00:03:34;7.00;99.90
15930;DHT22;8064;51.142;4.780;2022-12-07T00:06:00;6.90;99.90
15930;DHT22;8064;51.142;4.780;2022-12-07T00:08:26;6.90;99.90
15930;DHT22;8064;51.142;4.780;2022-12-07T00:10:52;6.90;99.90
15930;DHT22;8064;51.142;4.780;2022-12-07T00:13:18;6.90;99.90
15930;DHT22;8064;51.142;4.780;2022-12-07T00:15:44;6.90;99.90
15930;DHT22;8064;51.142;4.780;2022-12-07T00:18:09;7.00;99.90
15930;DHT22;8064;51.142;4.780;2022-12-07T00:20:35;7.00;99.90
15930;DHT22;8064;51.142;4.780;2022-12-07T00:23:01;7.00;99.90
15930;DHT22;8064;51.142;4.780;2022-12-07T00:25:27;7.00;99.90
15930;DHT22;8064;51.142;4.780;2022-12-07T00:27:53;7.10;99.90
15930;DHT22;8064;51.142;4.780;2022-12-07T00:30:22;7.10;99.90
15930;DHT22;8064;51.142;4.780;2022-12-07T00:32:48;7.10;99.90
15930;DHT22;8064;51.142;4.780;2022-12-07T00:35:14;7.10;99.90
15930;DHT22;8064;51.142;4.780;2022-12-07T00:37:39;7.10;99.90
15930;DHT22;8064;51.142;4.780;2022-12-07T00:40:06;7.10;99.90
15930;DHT22;8064;51.142;4.780;2022-12-07T00:42:32;7.10;99.90
15930;DHT22;8064;51.142;4.780;2022-12-07T00:44:57;7.10;99.90
15930;DHT22;8064;51.142;4.780;2022-12-07T00:47:23;7.20;99.90
15930;DHT22;8064;51.142;4.780;2022-12-07T00:49:49;7.20;99.90
15930;DHT22;8064;51.142;4.780;2022-12-07T00:52:14;7.20;99.90
15930;DHT22;8064;51.142;4.780;2022-12-07T00:54:40;7.20;99.90
15930;DHT22;8064;51.142;4.780;2022-12-07T00:57:06;7.20;99.90
15930;DHT22;8064;51.142;4.780;2022-12-07T00:59:32;7.20;99.90
15930;DHT22;8064;51.142;4.780;2022-12-07T01:01:57;7.20;99.90
15930;DHT22;8064;51.142;4.780;2022-12-07T01:04:23;7.20;99.90
15930;DHT22;8064;51.142;4.780;2022-12-07T01:06:49;7.20;99.90
15930;DHT22;8064;51.142;4.780;2022-12-07T01:09:14;7.20;99.90
15930;DHT22;8064;51.142;4.780;2022-12-07T01:11:40;7.20;99.90
15930;DHT22;8064;51.142;4.780;2022-12-07T01:14:06;7.20;99.90
15930;DHT22;8064;51.142;4.780;2022-12-07T01:16:33;7.20;99.90
15930;DHT22;8064;51.142;4.780;2022-12-07T01:18:59;7.20;99.90
15930;DHT22;8064;51.142;4.780;2022-12-07T01:21:28;7.20;99.90
15930;DHT22;8064;51.142;4.780;2022-12-07T01:23:54;7.20;99.90
15930;DHT22;8064;51.142;4.780;2022-12-07T01:26:21;7.20;99.90
15930;DHT22;8064;51.142;4.780;2022-12-07T01:28:48;7.10;99.90
15930;DHT22;8064;51.142;4.780;2022-12-07T01:31:16;7.10;99.90
15930;DHT22;8064;51.142;4.780;2022-12-07T01:33:46;7.20;99.90
15930;DHT22;8064;51.142;4.780;2022-12-07T01:36:18;7.20;99.90
15930;DHT22;8064;51.142;4.780;2022-12-07T01:38:47;7.10;99.90
15930;DHT22;8064;51.142;4.780;2022-12-07T01:41:14;7.10;99.90
15930;DHT22;8064;51.142;4.780;2022-12-07T01:46:37;7.10;99.90
15930;DHT22;8064;51.142;4.780;2022-12-07T01:49:06;7.10;99.90
15930;DHT22;8064;51.142;4.780;2022-12-07T01:51:34;7.00;99.90
15930;DHT22;8064;51.142;4.780;2022-12-07T01:54:01;7.00;99.90
15930;DHT22;8064;51.142;4.780;2022-12-07T01:56:27;7.00;99.90
15930;DHT22;8064;51.142;4.780;2022-12-07T01:58:54;6.90;99.90
15930;DHT22;8064;51.142;4.780;2022-12-07T02:01:21;6.90;99.90
15930;DHT22;8064;51.142;4.780;2022-12-07T02:03:47;6.90;99.90
15930;DHT22;8064;51.142;4.780;2022-12-07T02:06:17;6.90;99.90
15930;DHT22;8064;51.142;4.780;2022-12-07T02:08:45;6.90;99.90
15930;DHT22;8064;51.142;4.780;2022-12-07T02:11:11;6.90;99.90
15930;DHT22;8064;51.142;4.780;2022-12-07T02:13:40;6.80;99.90
15930;DHT22;8064;51.142;4.780;2022-12-07T02:21:45;6.90;99.90
15930;DHT22;8064;51.142;4.780;2022-12-07T02:27:17;6.90;99.90
15930;DHT22;8064;51.142;4.780;2022-12-07T02:32:44;6.80;99.90
15930;DHT22;8064;51.142;4.780;2022-12-07T02:38:13;6.70;99.90
15930;DHT22;8064;51.142;4.780;2022-12-07T02:43:26;6.60;99.90
15930;DHT22;8064;51.142;4.780;2022-12-07T02:45:55;6.50;99.90
15930;DHT22;8064;51.142;4.780;2022-12-07T02:48:23;6.50;99.90
15930;DHT22;8064;51.142;4.780;2022-12-07T02:50:51;6.50;99.90
15930;DHT22;8064;51.142;4.780;2022-12-07T02:53:36;6.50;99.90
15930;DHT22;8064;51.142;4.780;2022-12-07T02:58:54;6.40;99.90
15930;DHT22;8064;51.142;4.780;2022-12-07T03:06:58;6.40;99.90
15930;DHT22;8064;51.142;4.780;2022-12-07T03:09:58;6.40;99.90
15930;DHT22;8064;51.142;4.780;2022-12-07T03:12:41;6.40;99.90
15930;DHT22;8064;51.142;4.780;2022-12-07T03:15:36;6.40;99.90
15930;DHT22;8064;51.142;4.780;2022-12-07T03:18:05;6.40;99.90
15930;DHT22;8064;51.142;4.780;2022-12-07T03:20:34;6.30;99.90
15930;DHT22;8064;51.142;4.780;2022-12-07T03:23:04;6.30;99.90
15930;DHT22;8064;51.142;4.780;2022-12-07T03:25:32;6.30;99.90
15930;DHT22;8064;51.142;4.780;2022-12-07T03:28:03;6.30;99.90
15930;DHT22;8064;51.142;4.780;2022-12-07T03:30:42;6.30;99.90
15930;DHT22;8064;51.142;4.780;2022-12-07T03:33:27;6.30;99.90
15930;DHT22;8064;51.142;4.780;2022-12-07T03:36:08;6.30;99.90
15930;DHT22;8064;51.142;4.780;2022-12-07T03:38:42;6.20;99.90
15930;DHT22;8064;51.142;4.780;2022-12-07T03:41:31;6.20;99.90
15930;DHT22;8064;51.142;4.780;2022-12-07T03:43:59;6.10;99.90
15930;DHT22;8064;51.142;4.780;2022-12-07T03:46:45;6.00;99.90
15930;DHT22;8064;51.142;4.780;2022-12-07T03:57:21;5.80;99.90
15930;DHT22;8064;51.142;4.780;2022-12-07T03:59:48;5.70;99.90
15930;DHT22;8064;51.142;4.780;2022-12-07T04:02:15;5.70;99.90
15930;DHT22;8064;51.142;4.780;2022-12-07T04:04:41;5.60;99.90
15930;DHT22;8064;51.142;4.780;2022-12-07T04:07:09;5.60;99.90
15930;DHT22;8064;51.142;4.780;2022-12-07T04:09:35;5.50;99.90
15930;DHT22;8064;51.142;4.780;2022-12-07T04:12:00;5.50;99.90
15930;DHT22;8064;51.142;4.780;2022-12-07T04:14:26;5.40;99.90
15930;DHT22;8064;51.142;4.780;2022-12-07T04:16:57;5.40;99.90
15930;DHT22;8064;51.142;4.780;2022-12-07T04:19:25;5.30;99.90
15930;DHT22;8064;51.142;4.780;2022-12-07T04:21:51;5.40;99.90
15930;DHT22;8064;51.142;4.780;2022-12-07T04:24:17;5.40;99.90
15930;DHT22;8064;51.142;4.780;2022-12-07T04:26:44;5.40;99.90
15930;DHT22;8064;51.142;4.780;2022-12-07T04:29:11;5.40;99.90
15930;DHT22;8064;51.142;4.780;2022-12-07T04:31:37;5.40;99.90
15930;DHT22;8064;51.142;4.780;2022-12-07T04:34:03;5.40;99.90
15930;DHT22;8064;51.142;4.780;2022-12-07T04:36:29;5.40;99.90
15930;DHT22;8064;51.142;4.780;2022-12-07T04:38:55;5.40;99.90
15930;DHT22;8064;51.142;4.780;2022-12-07T04:41:22;5.40;99.90
15930;DHT22;8064;51.142;4.780;2022-12-07T04:43:56;5.30;99.90
15930;DHT22;8064;51.142;4.780;2022-12-07T04:46:23;5.30;99.90
15930;DHT22;8064;51.142;4.780;2022-12-07T04:48:50;5.30;99.90
15930;DHT22;8064;51.142;4.780;2022-12-07T04:51:19;5.40;99.90
15930;DHT22;8064;51.142;4.780;2022-12-07T04:53:45;5.40;99.90
15930;DHT22;8064;51.142;4.780;2022-12-07T04:56:11;5.50;99.90
15930;DHT22;8064;51.142;4.780;2022-12-07T04:58:37;5.50;99.90
15930;DHT22;8064;51.142;4.780;2022-12-07T05:01:02;5.60;99.90
15930;DHT22;8064;51.142;4.780;2022-12-07T05:03:28;5.60;99.90
15930;DHT22;8064;51.142;4.780;2022-12-07T05:05:54;5.60;99.90
15930;DHT22;8064;51.142;4.780;2022-12-07T05:08:20;5.60;99.90
15930;DHT22;8064;51.142;4.780;2022-12-07T05:10:45;5.70;99.90
15930;DHT22;8064;51.142;4.780;2022-12-07T05:13:11;5.70;99.90
15930;DHT22;8064;51.142;4.780;2022-12-07T05:15:37;5.70;99.90
15930;DHT22;8064;51.142;4.780;2022-12-07T05:18:02;5.70;99.90
15930;DHT22;8064;51.142;4.780;2022-12-07T05:20:29;5.70;99.90
15930;DHT22;8064;51.142;4.780;2022-12-07T05:22:54;5.70;99.90
15930;DHT22;8064;51.142;4.780;2022-12-07T05:25:20;5.70;99.90
15930;DHT22;8064;51.142;4.780;2022-12-07T05:27:46;5.70;99.90
15930;DHT22;8064;51.142;4.780;2022-12-07T05:30:12;5.70;99.90
15930;DHT22;8064;51.142;4.780;2022-12-07T05:32:38;5.70;99.90
15930;DHT22;8064;51.142;4.780;2022-12-07T05:35:04;5.70;99.90
15930;DHT22;8064;51.142;4.780;2022-12-07T05:37:30;5.70;99.90
15930;DHT22;8064;51.142;4.780;2022-12-07T05:39:56;5.70;99.90
15930;DHT22;8064;51.142;4.780;2022-12-07T05:42:21;5.70;99.90
15930;DHT22;8064;51.142;4.780;2022-12-07T05:44:47;5.70;99.90
15930;DHT22;8064;51.142;4.780;2022-12-07T05:47:14;5.70;99.90
15930;DHT22;8064;51.142;4.780;2022-12-07T05:49:40;5.80;99.90
15930;DHT22;8064;51.142;4.780;2022-12-07T05:52:06;5.80;99.90
15930;DHT22;8064;51.142;4.780;2022-12-07T05:54:32;5.80;99.90
15930;DHT22;8064;51.142;4.780;2022-12-07T05:56:58;5.80;99.90
15930;DHT22;8064;51.142;4.780;2022-12-07T05:59:24;5.80;99.90
15930;DHT22;8064;51.142;4.780;2022-12-07T06:01:54;5.80;99.90
15930;DHT22;8064;51.142;4.780;2022-12-07T06:04:21;5.80;99.90
15930;DHT22;8064;51.142;4.780;2022-12-07T06:06:47;5.70;99.90
15930;DHT22;8064;51.142;4.780;2022-12-07T06:09:13;5.70;99.90
15930;DHT22;8064;51.142;4.780;2022-12-07T06:11:40;5.70;99.90
15930;DHT22;8064;51.142;4.780;2022-12-07T06:14:24;5.70;99.90
15930;DHT22;8064;51.142;4.780;2022-12-07T06:16:50;5.70;99.90
15930;DHT22;8064;51.142;4.780;2022-12-07T06:19:16;5.70;99.90
15930;DHT22;8064;51.142;4.780;2022-12-07T06:21:42;5.70;99.90
15930;DHT22;8064;51.142;4.780;2022-12-07T06:24:11;5.70;99.90
15930;DHT22;8064;51.142;4.780;2022-12-07T06:26:38;5.70;99.90
15930;DHT22;8064;51.142;4.780;2022-12-07T06:29:03;5.70;99.90
15930;DHT22;8064;51.142;4.780;2022-12-07T06:31:29;5.70;99.90
15930;DHT22;8064;51.142;4.780;2022-12-07T06:34:03;5.70;99.90
15930;DHT22;8064;51.142;4.780;2022-12-07T06:36:29;5.70;99.90
15930;DHT22;8064;51.142;4.780;2022-12-07T06:38:55;5.70;99.90
15930;DHT22;8064;51.142;4.780;2022-12-07T06:41:21;5.70;99.90
15930;DHT22;8064;51.142;4.780;2022-12-07T06:43:47;5.70;99.90
15930;DHT22;8064;51.142;4.780;2022-12-07T06:46:14;5.70;99.90
15930;DHT22;8064;51.142;4.780;2022-12-07T06:48:40;5.70;99.90
15930;DHT22;8064;51.142;4.780;2022-12-07T06:51:06;5.60;99.90
15930;DHT22;8064;51.142;4.780;2022-12-07T06:53:32;5.60;99.90
15930;DHT22;8064;51.142;4.780;2022-12-07T06:55:57;5.60;99.90
15930;DHT22;8064;51.142;4.780;2022-12-07T06:58:23;5.60;99.90
15930;DHT22;8064;51.142;4.780;2022-12-07T07:00:49;5.60;99.90
15930;DHT22;8064;51.142;4.780;2022-12-07T07:03:16;5.60;99.90
15930;DHT22;8064;51.142;4.780;2022-12-07T07:05:42;5.60;99.90
15930;DHT22;8064;51.142;4.780;2022-12-07T07:08:08;5.60;99.90
15930;DHT22;8064;51.142;4.780;2022-12-07T07:10:34;5.50;99.90
15930;DHT22;8064;51.142;4.780;2022-12-07T07:13:01;5.50;99.90
15930;DHT22;8064;51.142;4.780;2022-12-07T07:15:26;5.50;99.90
15930;DHT22;8064;51.142;4.780;2022-12-07T07:17:52;5.50;99.90
15930;DHT22;8064;51.142;4.780;2022-12-07T07:20:18;5.50;99.90
15930;DHT22;8064;51.142;4.780;2022-12-07T07:22:44;5.50;99.90
15930;DHT22;8064;51.142;4.780;2022-12-07T07:25:09;5.40;99.90
15930;DHT22;8064;51.142;4.780;2022-12-07T07:27:35;5.40;99.90
15930;DHT22;8064;51.142;4.780;2022-12-07T07:30:01;5.40;99.90
15930;DHT22;8064;51.142;4.780;2022-12-07T07:32:27;5.40;99.90
15930;DHT22;8064;51.142;4.780;2022-12-07T07:34:54;5.40;99.90
15930;DHT22;8064;51.142;4.780;2022-12-07T07:37:19;5.40;99.90
15930;DHT22;8064;51.142;4.780;2022-12-07T07:39:45;5.40;99.90
15930;DHT22;8064;51.142;4.780;2022-12-07T07:42:11;5.40;99.90
15930;DHT22;8064;51.142;4.780;2022-12-07T07:44:37;5.40;99.90
15930;DHT22;8064;51.142;4.780;2022-12-07T07:47:02;5.40;99.90
15930;DHT22;8064;51.142;4.780;2022-12-07T07:49:28;5.50;99.90
15930;DHT22;8064;51.142;4.780;2022-12-07T07:51:56;5.50;99.90
15930;DHT22;8064;51.142;4.780;2022-12-07T07:54:23;5.60;99.90
15930;DHT22;8064;51.142;4.780;2022-12-07T07:56:49;5.60;99.90
15930;DHT22;8064;51.142;4.780;2022-12-07T07:59:15;5.60;99.90
15930;DHT22;8064;51.142;4.780;2022-12-07T08:01:42;5.70;99.90
15930;DHT22;8064;51.142;4.780;2022-12-07T08:04:08;5.70;99.90
15930;DHT22;8064;51.142;4.780;2022-12-07T08:06:34;5.80;99.90
15930;DHT22;8064;51.142;4.780;2022-12-07T08:09:00;5.80;99.90
15930;DHT22;8064;51.142;4.780;2022-12-07T08:11:25;5.90;99.90
15930;DHT22;8064;51.142;4.780;2022-12-07T08:13:51;5.90;99.90
15930;DHT22;8064;51.142;4.780;2022-12-07T08:16:17;5.90;99.90
15930;DHT22;8064;51.142;4.780;2022-12-07T08:18:43;5.90;99.90
15930;DHT22;8064;51.142;4.780;2022-12-07T08:21:13;6.00;99.90
15930;DHT22;8064;51.142;4.780;2022-12-07T08:23:40;6.00;99.90
15930;DHT22;8064;51.142;4.780;2022-12-07T08:26:08;6.10;99.90
15930;DHT22;8064;51.142;4.780;2022-12-07T08:28:34;6.10;99.90
15930;DHT22;8064;51.142;4.780;2022-12-07T08:31:01;6.10;99.90
15930;DHT22;8064;51.142;4.780;2022-12-07T08:33:27;6.20;99.90
15930;DHT22;8064;51.142;4.780;2022-12-07T08:35:53;6.20;99.90
15930;DHT22;8064;51.142;4.780;2022-12-07T08:38:19;6.30;99.90
15930;DHT22;8064;51.142;4.780;2022-12-07T08:40:44;6.40;99.90
15930;DHT22;8064;51.142;4.780;2022-12-07T08:43:10;6.50;99.90
15930;DHT22;8064;51.142;4.780;2022-12-07T08:45:36;6.60;99.90
15930;DHT22;8064;51.142;4.780;2022-12-07T08:48:06;6.70;99.90
15930;DHT22;8064;51.142;4.780;2022-12-07T08:50:34;6.80;99.90
15930;DHT22;8064;51.142;4.780;2022-12-07T08:53:02;7.00;99.90
15930;DHT22;8064;51.142;4.780;2022-12-07T08:55:30;7.10;99.90
15930;DHT22;8064;51.142;4.780;2022-12-07T08:57:58;7.60;99.90
15930;DHT22;8064;51.142;4.780;2022-12-07T09:00:24;8.40;99.90
15930;DHT22;8064;51.142;4.780;2022-12-07T09:02:50;8.70;99.90
15930;DHT22;8064;51.142;4.780;2022-12-07T09:05:16;8.50;99.90
15930;DHT22;8064;51.142;4.780;2022-12-07T09:07:43;8.30;99.90
15930;DHT22;8064;51.142;4.780;2022-12-07T09:10:10;8.10;99.90
15930;DHT22;8064;51.142;4.780;2022-12-07T09:12:35;8.00;99.90
15930;DHT22;8064;51.142;4.780;2022-12-07T09:15:01;7.90;99.90
15930;DHT22;8064;51.142;4.780;2022-12-07T09:17:28;7.80;99.90
15930;DHT22;8064;51.142;4.780;2022-12-07T09:19:56;7.80;99.90
15930;DHT22;8064;51.142;4.780;2022-12-07T09:22:22;7.70;99.90
15930;DHT22;8064;51.142;4.780;2022-12-07T09:24:48;7.70;99.90
15930;DHT22;8064;51.142;4.780;2022-12-07T09:27:14;7.70;99.90
15930;DHT22;8064;51.142;4.780;2022-12-07T09:29:39;7.80;99.90
15930;DHT22;8064;51.142;4.780;2022-12-07T09:32:05;7.90;99.90
15930;DHT22;8064;51.142;4.780;2022-12-07T09:34:31;8.00;99.90
15930;DHT22;8064;51.142;4.780;2022-12-07T09:36:57;8.10;99.90
15930;DHT22;8064;51.142;4.780;2022-12-07T09:39:23;8.20;99.90
15930;DHT22;8064;51.142;4.780;2022-12-07T09:41:49;8.80;99.90
15930;DHT22;8064;51.142;4.780;2022-12-07T09:44:21;9.00;99.90
15930;DHT22;8064;51.142;4.780;2022-12-07T09:46:48;9.00;99.90
15930;DHT22;8064;51.142;4.780;2022-12-07T09:49:28;9.10;99.90
15930;DHT22;8064;51.142;4.780;2022-12-07T09:52:27;10.20;99.90
15930;DHT22;8064;51.142;4.780;2022-12-07T09:54:54;13.70;98.50
15930;DHT22;8064;51.142;4.780;2022-12-07T09:57:29;16.30;95.30
15930;DHT22;8064;51.142;4.780;2022-12-07T10:00:02;19.40;90.60
15930;DHT22;8064;51.142;4.780;2022-12-07T10:02:43;20.20;86.40
15930;DHT22;8064;51.142;4.780;2022-12-07T10:05:19;20.40;83.80
15930;DHT22;8064;51.142;4.780;2022-12-07T10:07:47;20.90;81.60
15930;DHT22;8064;51.142;4.780;2022-12-07T10:10:19;19.80;82.90
15930;DHT22;8064;51.142;4.780;2022-12-07T10:13:02;18.80;84.00
15930;DHT22;8064;51.142;4.780;2022-12-07T10:18:35;22.90;74.80
15930;DHT22;8064;51.142;4.780;2022-12-07T10:23:43;27.10;63.00
15930;DHT22;8064;51.142;4.780;2022-12-07T10:31:39;31.00;51.50
15930;DHT22;8064;51.142;4.780;2022-12-07T10:36:53;25.00;58.70
15930;DHT22;8064;51.142;4.780;2022-12-07T10:39:47;22.50;63.40
15930;DHT22;8064;51.142;4.780;2022-12-07T10:42:21;20.20;67.00
15930;DHT22;8064;51.142;4.780;2022-12-07T10:44:49;18.50;70.30
15930;DHT22;8064;51.142;4.780;2022-12-07T11:09:36;11.90;86.80
15930;DHT22;8064;51.142;4.780;2022-12-07T11:11:47;11.60;87.90
15930;DHT22;8064;51.142;4.780;2022-12-07T11:16:58;11.00;89.40
15930;DHT22;8064;51.142;4.780;2022-12-07T11:25:23;10.50;91.00
15930;DHT22;8064;51.142;4.780;2022-12-07T11:30:44;10.30;91.60
15930;DHT22;8064;51.142;4.780;2022-12-07T11:33:22;10.20;91.60
15930;DHT22;8064;51.142;4.780;2022-12-07T11:36:08;10.20;91.90
15930;DHT22;8064;51.142;4.780;2022-12-07T11:38:53;10.30;92.30
15930;DHT22;8064;51.142;4.780;2022-12-07T11:41:23;10.60;92.50
15930;DHT22;8064;51.142;4.780;2022-12-07T11:44:07;10.90;92.40
15930;DHT22;8064;51.142;4.780;2022-12-07T11:46:47;11.30;92.40
15930;DHT22;8064;51.142;4.780;2022-12-07T11:49:20;11.60;92.30
15930;DHT22;8064;51.142;4.780;2022-12-07T11:51:49;11.60;92.20
15930;DHT22;8064;51.142;4.780;2022-12-07T11:54:27;11.50;92.30
15930;DHT22;8064;51.142;4.780;2022-12-07T11:56:55;11.30;92.50
15930;DHT22;8064;51.142;4.780;2022-12-07T11:59:38;11.10;92.60
15930;DHT22;8064;51.142;4.780;2022-12-07T12:02:23;10.90;92.80
15930;DHT22;8064;51.142;4.780;2022-12-07T12:04:51;10.70;93.00
15930;DHT22;8064;51.142;4.780;2022-12-07T12:07:22;10.60;93.20
15930;DHT22;8064;51.142;4.780;2022-12-07T12:09:53;10.60;93.50
15930;DHT22;8064;51.142;4.780;2022-12-07T12:23:17;13.60;92.10
15930;DHT22;8064;51.142;4.780;2022-12-07T12:25:49;13.20;92.10
15930;DHT22;8064;51.142;4.780;2022-12-07T12:31:16;12.40;92.30
15930;DHT22;8064;51.142;4.780;2022-12-07T12:33:51;12.00;92.60
15930;DHT22;8064;51.142;4.780;2022-12-07T12:36:19;11.70;92.90
15930;DHT22;8064;51.142;4.780;2022-12-07T12:38:51;11.50;93.20
15930;DHT22;8064;51.142;4.780;2022-12-07T12:51:48;11.10;93.90
15930;DHT22;8064;51.142;4.780;2022-12-07T12:59:30;10.70;94.40
15930;DHT22;8064;51.142;4.780;2022-12-07T13:02:28;10.50;94.60
15930;DHT22;8064;51.142;4.780;2022-12-07T13:16:36;9.90;95.60
15930;DHT22;8064;51.142;4.780;2022-12-07T13:18:41;9.80;95.60
15930;DHT22;8064;51.142;4.780;2022-12-07T13:23:33;9.70;95.80
15930;DHT22;8064;51.142;4.780;2022-12-07T13:26:17;9.70;95.90
15930;DHT22;8064;51.142;4.780;2022-12-07T13:28:47;9.80;95.90
15930;DHT22;8064;51.142;4.780;2022-12-07T13:31:55;9.70;95.90
15930;DHT22;8064;51.142;4.780;2022-12-07T13:36:55;9.80;96.00
15930;DHT22;8064;51.142;4.780;2022-12-07T13:39:24;9.70;96.00
15930;DHT22;8064;51.142;4.780;2022-12-07T13:41:53;9.70;96.00
15930;DHT22;8064;51.142;4.780;2022-12-07T13:44:20;9.70;96.10
15930;DHT22;8064;51.142;4.780;2022-12-07T13:46:58;9.70;96.20
15930;DHT22;8064;51.142;4.780;2022-12-07T13:49:30;9.70;96.40
15930;DHT22;8064;51.142;4.780;2022-12-07T13:52:16;9.60;96.40
15930;DHT22;8064;51.142;4.780;2022-12-07T13:55:00;9.60;96.60
15930;DHT22;8064;51.142;4.780;2022-12-07T13:57:28;9.60;96.70
15930;DHT22;8064;51.142;4.780;2022-12-07T13:59:54;9.50;96.70
15930;DHT22;8064;51.142;4.780;2022-12-07T14:02:29;9.50;96.80
15930;DHT22;8064;51.142;4.780;2022-12-07T14:05:24;9.40;96.90
15930;DHT22;8064;51.142;4.780;2022-12-07T14:10:39;9.30;97.10
15930;DHT22;8064;51.142;4.780;2022-12-07T14:13:34;9.30;97.20
15930;DHT22;8064;51.142;4.780;2022-12-07T14:16:54;9.20;97.30
15930;DHT22;8064;51.142;4.780;2022-12-07T14:18:54;9.20;97.30
15930;DHT22;8064;51.142;4.780;2022-12-07T14:21:24;9.10;97.30
15930;DHT22;8064;51.142;4.780;2022-12-07T14:26:34;9.00;97.60
15930;DHT22;8064;51.142;4.780;2022-12-07T14:29:19;8.90;97.50
15930;DHT22;8064;51.142;4.780;2022-12-07T14:31:45;8.90;97.80
15930;DHT22;8064;51.142;4.780;2022-12-07T14:34:13;8.90;97.80
15930;DHT22;8064;51.142;4.780;2022-12-07T14:36:39;8.80;97.90
15930;DHT22;8064;51.142;4.780;2022-12-07T14:39:05;8.70;98.00
15930;DHT22;8064;51.142;4.780;2022-12-07T14:41:30;8.70;98.10
15930;DHT22;8064;51.142;4.780;2022-12-07T14:44:15;8.70;98.10
15930;DHT22;8064;51.142;4.780;2022-12-07T14:46:41;8.60;98.10
15930;DHT22;8064;51.142;4.780;2022-12-07T14:49:07;8.50;98.20
15930;DHT22;8064;51.142;4.780;2022-12-07T14:51:33;8.50;98.40
15930;DHT22;8064;51.142;4.780;2022-12-07T14:54:01;8.50;98.50
15930;DHT22;8064;51.142;4.780;2022-12-07T14:56:27;8.40;98.60
15930;DHT22;8064;51.142;4.780;2022-12-07T14:58:53;8.40;98.70
15930;DHT22;8064;51.142;4.780;2022-12-07T15:01:19;8.40;98.80
15930;DHT22;8064;51.142;4.780;2022-12-07T15:03:45;8.30;98.70
15930;DHT22;8064;51.142;4.780;2022-12-07T15:06:14;8.30;98.80
15930;DHT22;8064;51.142;4.780;2022-12-07T15:08:40;8.20;98.80
15930;DHT22;8064;51.142;4.780;2022-12-07T15:11:06;8.20;98.90
15930;DHT22;8064;51.142;4.780;2022-12-07T15:13:31;8.10;99.00
15930;DHT22;8064;51.142;4.780;2022-12-07T15:16:19;8.10;99.10
15930;DHT22;8064;51.142;4.780;2022-12-07T15:18:45;8.00;99.10
15930;DHT22;8064;51.142;4.780;2022-12-07T15:21:14;8.00;99.20
15930;DHT22;8064;51.142;4.780;2022-12-07T15:23:40;8.00;99.20
15930;DHT22;8064;51.142;4.780;2022-12-07T15:26:07;7.90;99.30
15930;DHT22;8064;51.142;4.780;2022-12-07T15:28:33;7.90;99.40
15930;DHT22;8064;51.142;4.780;2022-12-07T15:30:59;7.90;99.40
15930;DHT22;8064;51.142;4.780;2022-12-07T15:33:25;7.80;99.50
15930;DHT22;8064;51.142;4.780;2022-12-07T15:35:51;7.80;99.50
15930;DHT22;8064;51.142;4.780;2022-12-07T15:38:16;7.80;99.60
15930;DHT22;8064;51.142;4.780;2022-12-07T15:40:42;7.70;99.60
15930;DHT22;8064;51.142;4.780;2022-12-07T15:43:10;7.70;99.70
15930;DHT22;8064;51.142;4.780;2022-12-07T15:45:56;7.70;99.80
15930;DHT22;8064;51.142;4.780;2022-12-07T15:48:22;7.70;99.80
15930;DHT22;8064;51.142;4.780;2022-12-07T15:50:48;7.70;99.90
15930;DHT22;8064;51.142;4.780;2022-12-07T15:53:13;7.70;99.90
15930;DHT22;8064;51.142;4.780;2022-12-07T15:55:39;7.60;99.90
15930;DHT22;8064;51.142;4.780;2022-12-07T15:58:06;7.60;99.90
15930;DHT22;8064;51.142;4.780;2022-12-07T16:00:32;7.60;99.90
15930;DHT22;8064;51.142;4.780;2022-12-07T16:02:58;7.50;99.90
15930;DHT22;8064;51.142;4.780;2022-12-07T16:05:24;7.60;99.90
15930;DHT22;8064;51.142;4.780;2022-12-07T16:07:50;7.50;99.90
15930;DHT22;8064;51.142;4.780;2022-12-07T16:10:16;7.50;99.90
15930;DHT22;8064;51.142;4.780;2022-12-07T16:12:41;7.50;99.90
15930;DHT22;8064;51.142;4.780;2022-12-07T16:15:07;7.50;99.90
15930;DHT22;8064;51.142;4.780;2022-12-07T16:17:33;7.50;99.90
15930;DHT22;8064;51.142;4.780;2022-12-07T16:19:59;7.40;99.90
15930;DHT22;8064;51.142;4.780;2022-12-07T16:22:25;7.30;99.90
15930;DHT22;8064;51.142;4.780;2022-12-07T16:24:51;7.30;99.90
15930;DHT22;8064;51.142;4.780;2022-12-07T16:27:16;7.30;99.90
15930;DHT22;8064;51.142;4.780;2022-12-07T16:29:42;7.20;99.90
15930;DHT22;8064;51.142;4.780;2022-12-07T16:32:08;7.10;99.90
15930;DHT22;8064;51.142;4.780;2022-12-07T16:34:34;7.10;99.90
15930;DHT22;8064;51.142;4.780;2022-12-07T16:36:59;7.10;99.90
15930;DHT22;8064;51.142;4.780;2022-12-07T16:39:25;7.10;99.90
15930;DHT22;8064;51.142;4.780;2022-12-07T16:41:51;7.10;99.90
15930;DHT22;8064;51.142;4.780;2022-12-07T16:44:18;7.10;99.90
15930;DHT22;8064;51.142;4.780;2022-12-07T16:46:43;7.10;99.90
15930;DHT22;8064;51.142;4.780;2022-12-07T16:49:13;7.10;99.90
15930;DHT22;8064;51.142;4.780;2022-12-07T16:51:39;7.20;99.90
15930;DHT22;8064;51.142;4.780;2022-12-07T16:54:06;7.20;99.90
15930;DHT22;8064;51.142;4.780;2022-12-07T16:56:32;7.20;99.90
15930;DHT22;8064;51.142;4.780;2022-12-07T16:58:58;7.20;99.90
15930;DHT22;8064;51.142;4.780;2022-12-07T17:01:24;7.20;99.90
15930;DHT22;8064;51.142;4.780;2022-12-07T17:03:52;7.30;99.90
15930;DHT22;8064;51.142;4.780;2022-12-07T17:06:23;7.20;99.90
15930;DHT22;8064;51.142;4.780;2022-12-07T17:08:50;7.20;99.90
15930;DHT22;8064;51.142;4.780;2022-12-07T17:11:25;7.20;99.90
15930;DHT22;8064;51.142;4.780;2022-12-07T17:13:51;7.20;99.90
15930;DHT22;8064;51.142;4.780;2022-12-07T17:16:36;7.20;99.90
15930;DHT22;8064;51.142;4.780;2022-12-07T17:19:10;7.20;99.90
15930;DHT22;8064;51.142;4.780;2022-12-07T17:21:37;7.20;99.90
15930;DHT22;8064;51.142;4.780;2022-12-07T17:24:06;7.20;99.90
15930;DHT22;8064;51.142;4.780;2022-12-07T17:26:33;7.20;99.90
15930;DHT22;8064;51.142;4.780;2022-12-07T17:28:59;7.20;99.90
15930;DHT22;8064;51.142;4.780;2022-12-07T17:31:25;7.20;99.90
15930;DHT22;8064;51.142;4.780;2022-12-07T17:33:51;7.20;99.90
15930;DHT22;8064;51.142;4.780;2022-12-07T17:36:20;7.10;99.90
15930;DHT22;8064;51.142;4.780;2022-12-07T17:38:46;7.10;99.90
15930;DHT22;8064;51.142;4.780;2022-12-07T17:41:15;7.10;99.90
15930;DHT22;8064;51.142;4.780;2022-12-07T17:44:02;7.10;99.90
15930;DHT22;8064;51.142;4.780;2022-12-07T17:46:29;7.10;99.90
15930;DHT22;8064;51.142;4.780;2022-12-07T17:48:55;7.10;99.90
15930;DHT22;8064;51.142;4.780;2022-12-07T17:51:20;7.10;99.90
15930;DHT22;8064;51.142;4.780;2022-12-07T17:54:04;7.00;99.90
15930;DHT22;8064;51.142;4.780;2022-12-07T17:56:30;6.90;99.90
15930;DHT22;8064;51.142;4.780;2022-12-07T17:58:56;6.90;99.90
15930;DHT22;8064;51.142;4.780;2022-12-07T18:01:22;6.80;99.90
15930;DHT22;8064;51.142;4.780;2022-12-07T18:03:47;6.80;99.90
15930;DHT22;8064;51.142;4.780;2022-12-07T18:06:13;6.80;99.90
15930;DHT22;8064;51.142;4.780;2022-12-07T18:08:39;6.80;99.90
15930;DHT22;8064;51.142;4.780;2022-12-07T18:11:05;6.80;99.90
15930;DHT22;8064;51.142;4.780;2022-12-07T18:13:32;6.80;99.90
15930;DHT22;8064;51.142;4.780;2022-12-07T18:16:04;6.80;99.90
15930;DHT22;8064;51.142;4.780;2022-12-07T18:18:29;6.80;99.90
15930;DHT22;8064;51.142;4.780;2022-12-07T18:20:55;6.80;99.90
15930;DHT22;8064;51.142;4.780;2022-12-07T18:23:21;6.80;99.90
15930;DHT22;8064;51.142;4.780;2022-12-07T18:25:50;6.80;99.90